createdAt,value
2018-02-17T00:00:29.624Z,86.37
2018-02-17T00:02:57.358Z,86.43
2018-02-17T00:05:25.045Z,80.90
2018-02-17T00:07:52.632Z,72.23
2018-02-17T00:10:20.266Z,76.03
2018-02-17T00:12:47.859Z,85.50
2018-02-17T00:15:15.681Z,84.40
2018-02-17T00:17:43.274Z,78.80
2018-02-17T00:20:10.854Z,86.60
2018-02-17T00:22:38.427Z,91.80
2018-02-17T00:25:06.033Z,73.77
2018-02-17T00:27:33.808Z,78.17
2018-02-17T00:30:01.372Z,81.33
2018-02-17T00:32:28.991Z,78.83
2018-02-17T00:34:56.562Z,61.87
2018-02-17T00:37:24.156Z,88.07
2018-02-17T00:39:51.760Z,85.13
2018-02-17T00:42:19.378Z,73.83
2018-02-17T00:44:46.947Z,72.80
2018-02-17T00:47:14.556Z,76.90
2018-02-17T00:49:42.375Z,75.93
2018-02-17T00:52:10.006Z,75.53
2018-02-17T00:54:37.624Z,70.30
2018-02-17T00:57:05.341Z,72.20
2018-02-17T00:59:32.908Z,87.87
2018-02-17T01:02:00.513Z,90.13
2018-02-17T01:04:28.131Z,102.30
2018-02-17T01:06:55.688Z,83.87
2018-02-17T01:09:23.268Z,99.33
2018-02-17T01:11:50.912Z,80.53
2018-02-17T01:14:18.470Z,92.30
2018-02-17T01:16:46.080Z,87.20
2018-02-17T01:19:13.689Z,79.93
2018-02-17T01:21:41.481Z,85.83
2018-02-17T01:24:09.253Z,77.40
2018-02-17T01:26:36.824Z,73.63
2018-02-17T01:29:04.404Z,73.33
2018-02-17T01:31:32.024Z,72.47
2018-02-17T01:33:59.588Z,74.50
2018-02-17T01:36:27.165Z,75.33
2018-02-17T01:38:54.778Z,82.03
2018-02-17T01:41:22.484Z,72.77
2018-02-17T01:43:50.072Z,68.60
2018-02-17T01:46:17.796Z,71.47
2018-02-17T01:48:45.480Z,67.70
2018-02-17T01:51:13.043Z,70.07
2018-02-17T01:53:40.682Z,85.83
2018-02-17T01:56:08.253Z,108.17
2018-02-17T01:58:35.871Z,117.93
2018-02-17T02:01:03.478Z,79.43
2018-02-17T02:03:31.050Z,74.77
2018-02-17T02:05:58.677Z,88.57
2018-02-17T02:08:26.361Z,76.80
2018-02-17T02:10:53.926Z,95.67
2018-02-17T02:13:21.509Z,91.07
2018-02-17T02:15:49.124Z,81.27
2018-02-17T02:18:16.797Z,87.87
2018-02-17T02:20:44.368Z,72.87
2018-02-17T02:23:11.980Z,75.47
2018-02-17T02:25:39.545Z,78.27
2018-02-17T02:28:07.115Z,70.37
2018-02-17T02:30:34.731Z,89.30
2018-02-17T02:33:02.324Z,104.80
2018-02-17T02:35:29.915Z,80.73
2018-02-17T02:37:57.520Z,91.40
2018-02-17T02:40:25.158Z,83.93
2018-02-17T02:42:53.008Z,73.90
2018-02-17T02:45:20.636Z,73.57
2018-02-17T02:47:48.215Z,77.57
2018-02-17T02:50:16.087Z,73.13
2018-02-17T02:52:43.690Z,80.47
2018-02-17T02:55:11.248Z,75.80
2018-02-17T02:57:38.830Z,74.47
2018-02-17T03:00:06.423Z,71.43
2018-02-17T03:02:33.974Z,80.33
2018-02-17T03:05:01.552Z,71.20
2018-02-17T03:07:29.164Z,70.60
2018-02-17T03:09:56.733Z,79.77
2018-02-17T03:12:24.306Z,82.57
2018-02-17T03:14:51.933Z,74.13
2018-02-17T03:17:19.502Z,83.77
2018-02-17T03:19:47.322Z,65.73
2018-02-17T03:22:14.939Z,77.27
2018-02-17T03:24:42.642Z,66.90
2018-02-17T03:27:10.217Z,63.23
2018-02-17T03:29:37.837Z,65.63
2018-02-17T03:32:05.648Z,61.63
2018-02-17T03:34:33.220Z,71.90
2018-02-17T03:37:00.820Z,76.20
2018-02-17T03:39:28.366Z,66.03
2018-02-17T03:41:55.934Z,73.13
2018-02-17T03:44:23.535Z,67.07
2018-02-17T03:46:51.097Z,70.13
2018-02-17T03:49:18.667Z,70.70
2018-02-17T03:51:46.271Z,75.33
2018-02-17T03:54:13.850Z,73.97
2018-02-17T03:56:41.457Z,73.17
2018-02-17T03:59:09.060Z,64.30
2018-02-17T04:01:36.637Z,69.30
2018-02-17T04:04:04.212Z,70.10
2018-02-17T04:06:31.820Z,70.03
2018-02-17T04:08:59.541Z,63.73
2018-02-17T04:11:27.115Z,77.63
2018-02-17T04:13:54.746Z,75.20
2018-02-17T04:16:22.533Z,69.83
2018-02-17T04:18:50.103Z,63.93
2018-02-17T04:21:17.714Z,69.80
2018-02-17T04:23:45.303Z,89.07
2018-02-17T04:26:12.890Z,89.03
2018-02-17T04:28:40.475Z,80.83
2018-02-17T04:31:08.310Z,71.47
2018-02-17T04:33:35.892Z,67.20
2018-02-17T04:36:03.612Z,67.80
2018-02-17T04:38:31.238Z,68.53
2018-02-17T04:44:10.232Z,68.13
2018-02-17T04:46:43.644Z,67.77
2018-02-17T04:49:17.860Z,64.90
2018-02-17T04:51:50.868Z,66.03
2018-02-17T04:54:20.900Z,83.37
2018-02-17T04:56:48.517Z,78.33
2018-02-17T05:02:26.364Z,77.47
2018-02-17T05:04:54.614Z,80.10
2018-02-17T05:07:32.634Z,73.97
2018-02-17T05:10:00.276Z,70.37
2018-02-17T05:12:28.050Z,76.07
2018-02-17T05:14:58.231Z,77.60
2018-02-17T05:17:31.519Z,78.07
2018-02-17T05:20:02.986Z,67.43
2018-02-17T05:25:46.206Z,66.97
2018-02-17T05:28:13.922Z,62.93
2018-02-17T05:30:42.805Z,85.50
2018-02-17T05:33:20.352Z,82.50
2018-02-17T05:38:50.699Z,69.40
2018-02-17T05:44:36.976Z,68.63
2018-02-17T05:47:06.365Z,67.83
2018-02-17T05:49:33.975Z,65.93
2018-02-17T05:52:01.629Z,80.37
2018-02-17T05:54:29.348Z,86.43
2018-02-17T05:56:57.000Z,88.00
2018-02-17T05:59:24.599Z,93.93
2018-02-17T06:01:52.181Z,82.30
2018-02-17T06:04:19.839Z,87.80
2018-02-17T06:06:47.461Z,84.30
2018-02-17T06:09:15.038Z,81.23
2018-02-17T06:11:42.780Z,88.57
2018-02-17T06:14:10.424Z,66.17
2018-02-17T06:16:38.041Z,84.60
2018-02-17T06:19:05.754Z,71.10
2018-02-17T06:21:33.348Z,76.43
2018-02-17T06:24:01.098Z,77.03
2018-02-17T06:26:28.953Z,67.67
2018-02-17T06:28:56.549Z,74.80
2018-02-17T06:31:24.268Z,72.90
2018-02-17T06:33:51.852Z,89.50
2018-02-17T06:36:19.456Z,85.17
2018-02-17T06:38:47.036Z,78.70
2018-02-17T06:41:14.707Z,79.50
2018-02-17T06:43:42.378Z,104.97
2018-02-17T06:46:09.958Z,93.00
2018-02-17T06:48:37.711Z,88.40
2018-02-17T06:51:05.580Z,94.33
2018-02-17T06:53:33.154Z,82.70
2018-02-17T06:56:00.746Z,92.90
2018-02-17T06:58:28.361Z,103.30
2018-02-17T07:00:56.022Z,95.13
2018-02-17T07:03:23.680Z,86.53
2018-02-17T07:05:51.295Z,89.80
2018-02-17T07:08:18.872Z,94.43
2018-02-17T07:10:46.662Z,90.70
2018-02-17T07:13:14.316Z,90.50
2018-02-17T07:15:41.970Z,71.90
2018-02-17T07:18:09.555Z,79.03
2018-02-17T07:20:37.156Z,68.93
2018-02-17T07:23:04.726Z,72.67
2018-02-17T07:25:32.424Z,71.00
2018-02-17T07:28:00.103Z,58.10
2018-02-17T07:30:27.675Z,56.67
2018-02-17T07:32:55.426Z,59.27
2018-02-17T07:35:23.050Z,49.70
2018-02-17T07:37:50.739Z,49.53
2018-02-17T07:40:18.342Z,58.90
2018-02-17T07:42:45.972Z,51.93
2018-02-17T07:45:13.718Z,56.13
2018-02-17T07:47:41.399Z,45.47
2018-02-17T07:50:09.014Z,59.13
2018-02-17T07:52:36.721Z,65.77
2018-02-17T07:55:04.282Z,72.90
2018-02-17T07:57:32.057Z,63.20
2018-02-17T07:59:59.665Z,62.70
2018-02-17T08:02:27.222Z,73.20
2018-02-17T08:04:55.164Z,70.97
2018-02-17T08:07:22.766Z,67.10
2018-02-17T08:09:50.338Z,85.47
2018-02-17T08:12:17.955Z,86.83
2018-02-17T08:14:45.539Z,80.30
2018-02-17T08:17:13.108Z,83.63
2018-02-17T08:19:40.716Z,74.47
2018-02-17T08:22:08.670Z,94.53
2018-02-17T08:24:36.338Z,91.30
2018-02-17T08:27:03.960Z,109.90
2018-02-17T08:29:31.536Z,106.67
2018-02-17T08:31:59.306Z,140.67
2018-02-17T08:34:26.982Z,122.83
2018-02-17T08:36:54.645Z,121.40
2018-02-17T08:39:22.236Z,111.93
2018-02-17T08:41:49.848Z,110.13
2018-02-17T08:44:17.763Z,100.10
2018-02-17T08:46:45.493Z,94.03
2018-02-17T08:49:13.107Z,121.53
2018-02-17T08:51:40.698Z,97.50
2018-02-17T08:54:08.478Z,100.47
2018-02-17T08:56:36.348Z,118.40
2018-02-17T08:59:03.930Z,85.33
2018-02-17T09:01:31.528Z,109.47
2018-02-17T09:03:59.129Z,95.43
2018-02-17T09:06:26.699Z,86.97
2018-02-17T09:08:54.303Z,81.60
2018-02-17T09:11:21.955Z,61.13
2018-02-17T09:13:49.532Z,48.80
2018-02-17T09:16:17.112Z,53.27
2018-02-17T09:18:44.826Z,37.23
2018-02-17T09:21:12.569Z,26.77
2018-02-17T09:23:40.207Z,35.07
2018-02-17T09:26:07.807Z,26.57
2018-02-17T09:28:35.578Z,28.40
2018-02-17T09:31:03.192Z,27.80
2018-02-17T09:33:31.052Z,25.77
2018-02-17T09:35:58.627Z,25.73
2018-02-17T09:38:26.202Z,45.20
2018-02-17T09:40:53.834Z,35.10
2018-02-17T09:43:21.413Z,31.50
2018-02-17T09:45:49.188Z,17.70
2018-02-17T09:48:16.847Z,26.97
2018-02-17T09:50:44.440Z,25.77
2018-02-17T09:53:12.195Z,27.50
2018-02-17T09:55:39.824Z,26.27
2018-02-17T09:58:07.414Z,26.77
2018-02-17T10:00:35.152Z,29.67
2018-02-17T10:03:02.766Z,22.87
2018-02-17T10:05:30.470Z,20.73
2018-02-17T10:07:58.142Z,21.97
2018-02-17T10:10:25.766Z,26.13
2018-02-17T10:12:53.470Z,28.83
2018-02-17T10:15:21.034Z,27.27
2018-02-17T10:17:49.207Z,34.27
2018-02-17T10:20:18.211Z,29.80
2018-02-17T10:22:47.520Z,31.30
2018-02-17T10:25:16.452Z,25.87
2018-02-17T10:27:45.695Z,24.10
2018-02-17T10:30:13.359Z,33.20
2018-02-17T10:32:42.457Z,22.20
2018-02-17T10:35:10.104Z,25.50
2018-02-17T10:37:37.708Z,29.77
2018-02-17T10:40:05.340Z,23.20
2018-02-17T10:42:32.924Z,18.13
2018-02-17T10:45:00.507Z,16.97
2018-02-17T10:47:28.141Z,20.50
2018-02-17T10:49:55.710Z,18.17
2018-02-17T10:52:23.295Z,33.33
2018-02-17T10:54:50.904Z,23.10
2018-02-17T10:57:18.566Z,23.60
2018-02-17T10:59:46.212Z,23.07
2018-02-17T11:02:13.839Z,21.17
2018-02-17T11:04:41.550Z,29.83
2018-02-17T11:07:09.271Z,31.97
2018-02-17T11:09:37.063Z,26.90
2018-02-17T11:12:04.638Z,20.20
2018-02-17T11:17:16.609Z,26.07
2018-02-17T11:19:44.175Z,35.80
2018-02-17T11:22:11.774Z,29.80
2018-02-17T11:24:39.421Z,17.77
2018-02-17T11:27:07.022Z,19.00
2018-02-17T11:29:34.600Z,17.50
2018-02-17T11:32:02.172Z,17.40
2018-02-17T11:34:29.778Z,22.43
2018-02-17T11:36:57.354Z,21.57
2018-02-17T11:39:24.968Z,23.20
2018-02-17T11:44:44.610Z,20.93
2018-02-17T11:47:12.209Z,22.03
2018-02-17T11:49:57.139Z,23.67
2018-02-17T11:52:24.783Z,19.13
2018-02-17T11:54:52.370Z,38.57
2018-02-17T11:57:19.975Z,17.23
2018-02-17T11:59:47.623Z,28.50
2018-02-17T12:02:15.218Z,19.07
2018-02-17T12:04:42.817Z,19.20
2018-02-17T12:07:10.444Z,26.13
2018-02-17T12:09:38.029Z,17.97
2018-02-17T12:12:05.613Z,21.40
2018-02-17T12:14:33.284Z,17.43
2018-02-17T12:17:00.887Z,21.13
2018-02-17T12:19:28.560Z,19.17
2018-02-17T12:21:56.200Z,20.90
2018-02-17T12:24:23.787Z,19.50
2018-02-17T12:26:51.536Z,22.00
2018-02-17T12:29:19.248Z,20.37
2018-02-17T12:31:46.866Z,16.53
2018-02-17T12:34:14.456Z,17.67
2018-02-17T12:36:42.127Z,18.50
2018-02-17T12:39:09.699Z,16.07
2018-02-17T12:41:37.308Z,15.50
2018-02-17T12:44:04.945Z,14.60
2018-02-17T12:46:32.530Z,17.10
2018-02-17T12:49:00.114Z,16.30
2018-02-17T12:51:27.716Z,23.70
2018-02-17T12:53:55.389Z,16.20
2018-02-17T12:56:22.987Z,14.40
2018-02-17T12:58:50.580Z,16.97
2018-02-17T13:01:18.144Z,17.70
2018-02-17T13:03:45.736Z,14.13
2018-02-17T13:06:13.323Z,17.00
2018-02-17T13:08:41.044Z,22.13
2018-02-17T13:11:08.594Z,15.83
2018-02-17T13:13:36.199Z,15.90
2018-02-17T13:16:03.778Z,17.17
2018-02-17T13:18:31.333Z,25.73
2018-02-17T13:20:58.940Z,19.33
2018-02-17T13:23:26.505Z,23.63
2018-02-17T13:25:54.088Z,16.23
2018-02-17T13:28:25.715Z,15.37
2018-02-17T13:30:53.310Z,19.93
2018-02-17T13:33:20.986Z,14.40
2018-02-17T13:35:48.591Z,17.40
2018-02-17T13:38:16.151Z,23.07
2018-02-17T13:40:43.715Z,32.23
2018-02-17T13:43:11.442Z,21.80
2018-02-17T13:45:39.106Z,19.73
2018-02-17T13:48:06.754Z,20.53
2018-02-17T13:50:34.342Z,15.97
2018-02-17T13:53:01.923Z,19.20
2018-02-17T13:55:29.510Z,18.20
2018-02-17T13:57:57.110Z,13.97
2018-02-17T14:00:24.684Z,13.47
2018-02-17T14:02:52.251Z,25.60
2018-02-17T14:05:19.847Z,15.03
2018-02-17T14:07:47.405Z,13.83
2018-02-17T14:10:15.098Z,17.43
2018-02-17T14:12:42.732Z,21.90
2018-02-17T14:15:10.309Z,13.83
2018-02-17T14:17:38.017Z,12.87
2018-02-17T14:20:05.660Z,21.13
2018-02-17T14:22:33.230Z,16.13
2018-02-17T14:25:00.794Z,18.30
2018-02-17T14:27:28.444Z,20.13
2018-02-17T14:29:56.012Z,17.87
2018-02-17T14:32:23.641Z,20.07
2018-02-17T14:34:51.248Z,21.60
2018-02-17T14:37:18.818Z,21.97
2018-02-17T14:39:46.402Z,20.77
2018-02-17T14:42:14.010Z,17.67
2018-02-17T14:44:41.753Z,20.57
2018-02-17T14:47:09.317Z,22.33
2018-02-17T14:49:36.936Z,22.90
2018-02-17T14:52:04.740Z,25.33
2018-02-17T14:54:32.311Z,28.63
2018-02-17T14:56:59.923Z,21.83
2018-02-17T14:59:27.488Z,22.90
2018-02-17T15:01:55.185Z,26.83
2018-02-17T15:04:22.792Z,28.67
2018-02-17T15:06:50.400Z,19.87
2018-02-17T15:09:17.962Z,22.60
2018-02-17T15:11:45.632Z,25.50
2018-02-17T15:14:14.386Z,39.47
2018-02-17T15:16:41.944Z,23.23
2018-02-17T15:19:09.546Z,26.97
2018-02-17T15:21:37.116Z,30.10
2018-02-17T15:24:04.758Z,28.10
2018-02-17T15:26:32.444Z,35.27
2018-02-17T15:29:00.023Z,32.77
2018-02-17T15:31:27.599Z,32.80
2018-02-17T15:33:55.406Z,36.53
2018-02-17T15:36:23.089Z,30.60
2018-02-17T15:38:50.704Z,40.00
2018-02-17T15:41:18.511Z,33.37
2018-02-17T15:43:46.100Z,35.70
2018-02-17T15:46:13.655Z,38.00
2018-02-17T15:48:41.245Z,33.90
2018-02-17T15:51:08.830Z,45.50
2018-02-17T15:53:36.390Z,63.77
2018-02-17T15:56:04.326Z,53.10
2018-02-17T15:58:31.881Z,47.57
2018-02-17T16:00:59.448Z,41.60
2018-02-17T16:03:27.048Z,31.23
2018-02-17T16:05:54.645Z,47.90
2018-02-17T16:08:22.227Z,56.07
2018-02-17T16:10:49.893Z,64.80
2018-02-17T16:13:17.448Z,72.00
2018-02-17T16:15:45.015Z,56.03
2018-02-17T16:18:14.503Z,58.53
2018-02-17T16:20:44.226Z,84.63
2018-02-17T16:23:17.692Z,51.40
2018-02-17T16:25:45.345Z,96.20
2018-02-17T16:28:12.908Z,43.17
2018-02-17T16:30:40.500Z,80.27
2018-02-17T16:33:08.313Z,60.63
2018-02-17T16:35:35.887Z,47.67
2018-02-17T16:38:03.479Z,50.07
2018-02-17T16:40:31.109Z,53.80
2018-02-17T16:42:58.753Z,46.13
2018-02-17T16:45:26.347Z,50.00
2018-02-17T16:47:53.949Z,50.40
2018-02-17T16:50:21.605Z,72.13
2018-02-17T16:52:49.188Z,67.83
2018-02-17T16:55:16.817Z,79.33
2018-02-17T16:57:44.547Z,87.10
2018-02-17T17:00:12.098Z,49.13
2018-02-17T17:02:39.846Z,44.93
2018-02-17T17:05:07.430Z,45.27
2018-02-17T17:07:35.023Z,52.20
2018-02-17T17:10:02.844Z,55.87
2018-02-17T17:12:30.496Z,71.60
2018-02-17T17:14:58.188Z,67.10
2018-02-17T17:17:25.845Z,84.80
2018-02-17T17:19:53.407Z,65.90
2018-02-17T17:22:20.978Z,73.87
2018-02-17T17:24:48.625Z,90.30
2018-02-17T17:27:16.289Z,84.57
2018-02-17T17:29:43.844Z,69.37
2018-02-17T17:32:11.513Z,83.13
2018-02-17T17:34:39.272Z,57.57
2018-02-17T17:37:07.347Z,58.57
2018-02-17T17:39:35.202Z,48.53
2018-02-17T17:42:03.040Z,45.73
2018-02-17T17:44:30.988Z,49.33
2018-02-17T17:46:58.632Z,84.10
2018-02-17T17:49:26.274Z,79.80
2018-02-17T17:51:53.868Z,57.63
2018-02-17T17:54:21.592Z,53.33
2018-02-17T17:56:49.247Z,57.30
2018-02-17T17:59:16.919Z,58.23
2018-02-17T18:01:44.522Z,84.83
2018-02-17T18:04:12.183Z,60.57
2018-02-17T18:06:39.778Z,58.53
2018-02-17T18:09:07.474Z,58.50
2018-02-17T18:11:35.561Z,44.87
2018-02-17T18:14:03.158Z,50.73
2018-02-17T18:16:30.967Z,67.30
2018-02-17T18:18:58.539Z,65.80
2018-02-17T18:21:26.094Z,82.47
2018-02-17T18:23:53.688Z,42.10
2018-02-17T18:26:21.414Z,42.90
2018-02-17T18:28:49.045Z,45.90
2018-02-17T18:31:16.683Z,44.80
2018-02-17T18:33:44.383Z,58.07
2018-02-17T18:36:12.216Z,61.10
2018-02-17T18:38:39.831Z,60.13
2018-02-17T18:41:07.544Z,108.97
2018-02-17T18:43:35.103Z,92.00
2018-02-17T18:46:02.770Z,52.83
2018-02-17T18:48:30.349Z,58.20
2018-02-17T18:50:57.907Z,80.23
2018-02-17T18:53:25.509Z,56.33
2018-02-17T18:55:53.080Z,63.23
2018-02-17T18:58:20.681Z,50.17
2018-02-17T19:00:48.267Z,66.37
2018-02-17T19:03:15.839Z,48.10
2018-02-17T19:05:43.384Z,66.17
2018-02-17T19:08:11.056Z,47.40
2018-02-17T19:10:38.720Z,80.97
2018-02-17T19:13:06.381Z,53.40
2018-02-17T19:15:34.043Z,41.10
2018-02-17T19:18:01.603Z,46.47
2018-02-17T19:20:29.165Z,53.17
2018-02-17T19:22:56.784Z,49.17
2018-02-17T19:25:24.356Z,61.47
2018-02-17T19:27:51.948Z,60.70
2018-02-17T19:30:19.587Z,61.87
2018-02-17T19:32:47.457Z,66.00
2018-02-17T19:35:15.032Z,63.83
2018-02-17T19:37:42.643Z,74.90
2018-02-17T19:40:10.215Z,64.90
2018-02-17T19:42:37.763Z,106.97
2018-02-17T19:45:05.345Z,93.10
2018-02-17T19:47:32.903Z,93.13
2018-02-17T19:50:00.454Z,75.90
2018-02-17T19:52:28.054Z,70.67
2018-02-17T19:54:55.800Z,65.90
2018-02-17T19:57:23.347Z,62.70
2018-02-17T19:59:50.949Z,60.90
2018-02-17T20:02:18.511Z,65.90
2018-02-17T20:04:46.083Z,59.57
2018-02-17T20:07:13.678Z,51.73
2018-02-17T20:09:41.270Z,52.30
2018-02-17T20:12:08.834Z,63.00
2018-02-17T20:14:36.456Z,61.67
2018-02-17T20:17:04.036Z,53.50
2018-02-17T20:19:31.618Z,59.77
2018-02-17T20:21:59.232Z,64.33
2018-02-17T20:24:26.934Z,55.90
2018-02-17T20:26:54.510Z,68.23
2018-02-17T20:29:22.110Z,71.17
2018-02-17T20:31:49.687Z,66.97
2018-02-17T20:34:17.379Z,66.10
2018-02-17T20:36:45.062Z,64.13
2018-02-17T20:39:12.632Z,64.37
2018-02-17T20:41:40.199Z,56.40
2018-02-17T20:44:07.942Z,58.67
2018-02-17T20:46:35.710Z,60.03
2018-02-17T20:49:04.222Z,61.27
2018-02-17T20:51:31.819Z,67.67
2018-02-17T20:53:59.396Z,59.70
2018-02-17T20:56:26.968Z,66.20
2018-02-17T20:58:54.632Z,66.80
2018-02-17T21:01:22.211Z,59.93
2018-02-17T21:03:49.779Z,66.30
2018-02-17T21:06:17.392Z,102.73
2018-02-17T21:08:45.003Z,64.40
2018-02-17T21:11:12.591Z,75.57
2018-02-17T21:13:40.198Z,62.87
2018-02-17T21:16:07.870Z,64.10
2018-02-17T21:18:35.454Z,71.50
2018-02-17T21:21:03.065Z,64.80
2018-02-17T21:23:30.689Z,62.10
2018-02-17T21:25:58.273Z,70.17
2018-02-17T21:28:25.920Z,63.33
2018-02-17T21:30:53.541Z,59.80
2018-02-17T21:33:21.102Z,56.87
2018-02-17T21:35:50.173Z,58.57
2018-02-17T21:38:17.739Z,63.17
2018-02-17T21:40:45.365Z,52.50
2018-02-17T21:43:13.034Z,64.03
2018-02-17T21:45:40.593Z,65.93
2018-02-17T21:48:08.161Z,79.67
2018-02-17T21:50:35.788Z,61.07
2018-02-17T21:53:03.417Z,93.47
2018-02-17T21:55:30.996Z,72.53
2018-02-17T21:57:59.169Z,61.83
2018-02-17T22:00:26.850Z,112.80
2018-02-17T22:02:54.435Z,79.47
2018-02-17T22:05:22.042Z,69.47
2018-02-17T22:07:49.606Z,169.87
2018-02-17T22:10:17.154Z,73.27
2018-02-17T22:12:44.753Z,64.80
2018-02-17T22:15:12.320Z,64.37
2018-02-17T22:17:39.902Z,70.87
2018-02-17T22:20:07.514Z,70.17
2018-02-17T22:22:35.069Z,85.47
2018-02-17T22:25:02.631Z,102.20
2018-02-17T22:27:30.257Z,163.70
2018-02-17T22:29:57.812Z,115.33
2018-02-17T22:32:25.375Z,100.67
2018-02-17T22:34:52.994Z,115.47
2018-02-17T22:37:20.563Z,109.67
2018-02-17T22:39:48.150Z,137.83
2018-02-17T22:42:15.764Z,120.33
2018-02-17T22:44:43.354Z,132.63
2018-02-17T22:47:10.953Z,132.17
2018-02-17T22:49:38.593Z,134.90
2018-02-17T22:52:06.173Z,170.80
2018-02-17T22:54:33.760Z,154.63
2018-02-17T22:57:01.347Z,122.73
2018-02-17T22:59:28.913Z,109.33
2018-02-17T23:01:56.506Z,108.60
2018-02-17T23:04:24.125Z,106.23
2018-02-17T23:06:51.702Z,112.03
2018-02-17T23:09:19.284Z,94.40
2018-02-17T23:11:46.891Z,106.80
2018-02-17T23:14:14.478Z,88.27
2018-02-17T23:16:42.051Z,94.63
2018-02-17T23:19:09.653Z,96.10
2018-02-17T23:21:37.223Z,92.23
2018-02-17T23:24:04.780Z,96.10
2018-02-17T23:26:32.401Z,102.83
2018-02-17T23:28:59.980Z,96.53
2018-02-17T23:31:27.553Z,102.50
2018-02-17T23:33:55.138Z,84.40
2018-02-17T23:36:22.700Z,108.57
2018-02-17T23:38:50.265Z,102.67
2018-02-17T23:41:17.882Z,100.20
2018-02-17T23:43:45.464Z,96.87
2018-02-17T23:46:13.035Z,115.80
2018-02-17T23:48:40.647Z,124.30
2018-02-17T23:51:08.839Z,111.97
2018-02-17T23:53:36.421Z,99.67
2018-02-17T23:56:04.053Z,112.20
2018-02-17T23:58:31.608Z,110.67
